Time;durP1;ratioP1;P1;durP2;ratioP2;P2;SDS_P1;SDS_P2;PMS_P1;PMS_P2;Temp;Humidity;BMP_temperature;BMP_pressure;BME280_temperature;BME280_humidity;BME280_pressure;Samples;Min_cycle;Max_cycle;Signal;HPM_P1;HPM_P2
2022/07/28 00:00:38;;;;;;;3.65;0.60;;;13.60;59.80;;;;;;4126575;28;20052;-87
2022/07/28 00:02:39;;;;;;;2.97;0.85;;;13.60;59.70;;;;;;4128274;28;20026;-87
2022/07/28 00:04:39;;;;;;;2.10;0.50;;;13.60;59.70;;;;;;4137493;28;20052;-87
2022/07/28 00:06:40;;;;;;;7.40;0.80;;;13.60;59.80;;;;;;4134531;28;20041;-87
2022/07/28 00:08:41;;;;;;;5.40;0.65;;;13.60;59.80;;;;;;4134211;28;20026;-87
2022/07/28 00:10:41;;;;;;;2.78;0.70;;;13.60;59.90;;;;;;4129653;28;20026;-87
2022/07/28 00:12:43;;;;;;;5.80;0.90;;;13.60;59.90;;;;;;4128822;28;20106;-87
2022/07/28 00:14:46;;;;;;;3.63;0.50;;;13.60;59.90;;;;;;4130247;28;20022;-88
2022/07/28 00:16:47;;;;;;;;;;;13.60;59.90;;;;;;4119077;28;20037;-87
2022/07/28 00:18:47;;;;;;;3.10;0.60;;;13.60;60.20;;;;;;4113480;28;19925;-88
2022/07/28 00:20:48;;;;;;;1.92;0.45;;;13.60;59.70;;;;;;4131114;28;20040;-87
2022/07/28 00:22:49;;;;;;;3.10;0.98;;;13.60;59.80;;;;;;4129791;28;20032;-87
2022/07/28 00:24:50;;;;;;;2.45;0.50;;;13.60;59.80;;;;;;4118483;28;20509;-88
2022/07/28 00:26:51;;;;;;;2.05;0.60;;;13.50;59.80;;;;;;4120547;28;21384;-87
2022/07/28 00:28:52;;;;;;;1.73;0.68;;;13.50;59.90;;;;;;4111322;28;20524;-87
2022/07/28 00:30:54;;;;;;;4.05;0.60;;;13.50;59.90;;;;;;4119835;28;20177;-88
2022/07/28 00:32:55;;;;;;;6.43;0.77;;;13.50;59.80;;;;;;4122101;28;20026;-86
2022/07/28 00:34:56;;;;;;;7.25;1.02;;;13.40;59.80;;;;;;4138641;28;20520;-87
2022/07/28 00:36:56;;;;;;;4.82;0.77;;;13.40;59.90;;;;;;4117300;28;20106;-88
2022/07/28 00:38:57;;;;;;;3.42;0.80;;;13.40;59.80;;;;;;4136327;28;20056;-87
2022/07/28 00:41:10;;;;;;;7.88;0.93;;;13.30;59.80;;;;;;4119368;28;20034;-87
2022/07/28 00:43:30;;;;;;;8.70;1.20;;;13.30;59.80;;;;;;4132832;28;20053;-88
2022/07/28 00:45:51;;;;;;;3.65;0.77;;;13.30;59.80;;;;;;4133134;28;20084;-87
2022/07/28 00:48:12;;;;;;;3.35;0.63;;;13.20;59.80;;;;;;4134409;28;20052;-87
2022/07/28 00:50:33;;;;;;;2.92;0.70;;;13.20;59.80;;;;;;4131928;28;20033;-87
2022/07/28 00:52:54;;;;;;;2.35;0.70;;;13.20;59.70;;;;;;4121015;28;20697;-87
2022/07/28 00:55:15;;;;;;;4.25;1.10;;;13.10;59.70;;;;;;4127646;28;20042;-87
2022/07/28 00:57:16;;;;;;;2.45;0.80;;;13.10;59.70;;;;;;4119978;28;20089;-87
2022/07/28 00:59:17;;;;;;;5.60;0.75;;;13.00;59.70;;;;;;4134507;28;20475;-87
2022/07/28 01:01:19;;;;;;;2.50;0.63;;;13.00;59.70;;;;;;4120441;28;20087;-87
2022/07/28 01:03:20;;;;;;;4.32;0.73;;;12.90;59.80;;;;;;4141079;28;20026;-88
2022/07/28 01:05:21;;;;;;;2.00;0.50;;;12.80;59.70;;;;;;4137235;28;20458;-88
2022/07/28 01:08:08;;;;;;;1.70;0.60;;;12.80;59.80;;;;;;4136400;28;20030;-88
2022/07/28 01:10:18;;;;;;;4.82;0.95;;;12.70;60.10;;;;;;4071120;28;20042;-87
2022/07/28 01:12:19;;;;;;;4.80;0.98;;;12.70;59.90;;;;;;4134261;28;20487;-86
2022/07/28 01:14:29;;;;;;;3.47;0.90;;;12.60;59.90;;;;;;4118929;28;20037;-87
2022/07/28 01:16:30;;;;;;;5.10;0.88;;;12.60;60.20;;;;;;4132855;28;20116;-86
2022/07/28 01:18:40;;;;;;;4.15;0.85;;;12.60;60.20;;;;;;4116518;28;20047;-86
2022/07/28 01:20:49;;;;;;;5.30;0.80;;;12.50;60.40;;;;;;4134739;28;21358;-87
2022/07/28 01:23:12;;;;;;;2.08;0.60;;;12.40;60.40;;;;;;4121034;28;20031;-86
2022/07/28 01:25:28;;;;;;;3.92;0.63;;;12.40;60.60;;;;;;4134809;28;21773;-87
2022/07/28 01:27:49;;;;;;;3.78;0.98;;;12.30;60.60;;;;;;4134401;28;21280;-86
2022/07/28 01:30:01;;;;;;;3.72;0.55;;;12.30;60.80;;;;;;4139501;28;20045;-84
2022/07/28 01:32:15;;;;;;;2.17;0.65;;;12.30;60.80;;;;;;4134180;28;20092;-84
2022/07/28 01:34:20;;;;;;;4.68;0.80;;;12.20;60.90;;;;;;4134810;28;20073;-85
2022/07/28 01:36:26;;;;;;;4.03;0.85;;;12.20;60.80;;;;;;4136834;28;20427;-86
2022/07/28 01:38:30;;;;;;;2.38;0.60;;;12.10;61.60;;;;;;4123745;28;20113;-87
2022/07/28 01:40:34;;;;;;;4.20;0.90;;;12.10;60.90;;;;;;4124062;28;20756;-85
2022/07/28 01:42:40;;;;;;;4.07;0.52;;;12.10;61.00;;;;;;4120753;28;20451;-87
2022/07/28 01:44:45;;;;;;;3.25;0.60;;;12.00;61.00;;;;;;4134566;28;20049;-85
2022/07/28 01:47:06;;;;;;;4.63;1.05;;;12.00;61.00;;;;;;4137290;28;20042;-85
2022/07/28 01:49:09;;;;;;;5.00;0.80;;;11.90;61.00;;;;;;4133978;28;20057;-87
2022/07/28 01:51:31;;;;;;;3.38;0.73;;;11.90;61.00;;;;;;4138947;28;20040;-87
2022/07/28 01:53:53;;;;;;;5.05;0.80;;;11.80;61.20;;;;;;4134173;28;21350;-88
2022/07/28 01:56:14;;;;;;;8.05;1.48;;;11.80;61.30;;;;;;4119028;28;20019;-87
2022/07/28 01:58:37;;;;;;;2.50;0.70;;;11.80;61.60;;;;;;4119643;28;20503;-87
2022/07/28 02:00:59;;;;;;;5.25;0.90;;;11.70;61.90;;;;;;4135810;28;20488;-87
2022/07/28 02:03:22;;;;;;;5.43;1.10;;;11.70;62.20;;;;;;4124951;28;21199;-87
2022/07/28 02:05:44;;;;;;;4.38;0.93;;;11.60;62.40;;;;;;4135142;28;20542;-87
2022/07/28 02:08:06;;;;;;;5.53;0.98;;;11.60;62.70;;;;;;4121423;28;20773;-86
2022/07/28 02:10:29;;;;;;;2.92;0.65;;;11.60;63.00;;;;;;4121688;28;20516;-88
2022/07/28 02:12:53;;;;;;;3.38;0.88;;;11.60;63.30;;;;;;4122495;28;20276;-86
2022/07/28 02:15:14;;;;;;;6.57;0.70;;;11.60;64.20;;;;;;4141360;28;20624;-88
2022/07/28 02:17:37;;;;;;;5.60;1.00;;;11.60;63.60;;;;;;4143961;28;20142;-88
2022/07/28 02:19:59;;;;;;;3.80;1.05;;;11.70;63.90;;;;;;4121068;28;20030;-87
2022/07/28 02:22:02;;;;;;;3.50;0.98;;;11.70;64.20;;;;;;4137590;28;20045;-88
2022/07/28 02:24:04;;;;;;;5.55;1.05;;;11.60;64.30;;;;;;4137374;28;20038;-88
2022/07/28 02:26:08;;;;;;;4.68;0.90;;;11.60;64.80;;;;;;4112531;28;20586;-88
2022/07/28 02:28:11;;;;;;;4.10;0.82;;;11.60;64.80;;;;;;4115801;28;20030;-86
2022/07/28 02:30:31;;;;;;;3.92;0.90;;;11.60;65.00;;;;;;4120509;28;20030;-87
2022/07/28 02:32:54;;;;;;;7.80;1.40;;;11.60;65.10;;;;;;4135797;28;20532;-87
2022/07/28 02:35:00;;;;;;;7.10;1.25;;;11.70;65.70;;;;;;4134362;28;20061;-88
2022/07/28 02:37:02;;;;;;;6.93;1.05;;;11.70;65.40;;;;;;4136371;28;20037;-87
2022/07/28 02:39:20;;;;;;;4.40;1.13;;;11.70;65.60;;;;;;4132426;28;20052;-87
2022/07/28 02:41:25;;;;;;;6.10;0.90;;;11.70;66.30;;;;;;4132588;28;20038;-88
2022/07/28 02:43:28;;;;;;;9.02;1.35;;;11.70;65.90;;;;;;4135981;28;20840;-88
2022/07/28 02:45:32;;;;;;;2.78;0.80;;;11.70;66.00;;;;;;4133065;28;20022;-88
2022/07/28 02:47:38;;;;;;;3.95;1.02;;;11.70;66.80;;;;;;4133503;28;20030;-87
2022/07/28 02:49:40;;;;;;;4.53;0.88;;;11.70;66.30;;;;;;4117920;28;20041;-87
2022/07/28 02:51:44;;;;;;;4.45;1.20;;;11.70;66.20;;;;;;4136124;28;20451;-89
2022/07/28 02:53:46;;;;;;;3.97;1.20;;;11.80;66.30;;;;;;4138295;28;20029;-87
2022/07/28 02:55:50;;;;;;;4.15;1.17;;;11.80;66.30;;;;;;4140204;28;20104;-87
2022/07/28 02:57:52;;;;;;;3.75;0.98;;;11.80;66.40;;;;;;4115110;28;20248;-87
2022/07/28 02:59:54;;;;;;;8.45;1.30;;;11.80;66.60;;;;;;4134155;28;20038;-87
2022/07/28 03:01:55;;;;;;;3.45;1.00;;;11.80;66.60;;;;;;4118766;28;20906;-87
2022/07/28 03:03:56;;;;;;;3.95;1.02;;;11.80;66.70;;;;;;4119545;28;20030;-87
2022/07/28 03:05:58;;;;;;;2.65;1.00;;;11.90;66.70;;;;;;4134818;28;20492;-87
2022/07/28 03:07:59;;;;;;;2.38;0.90;;;11.80;66.60;;;;;;4134799;28;20091;-87
2022/07/28 03:10:01;;;;;;;8.40;1.27;;;11.90;66.70;;;;;;4120129;28;20041;-88
2022/07/28 03:12:02;;;;;;;5.05;0.98;;;11.90;66.70;;;;;;4118389;28;20026;-88
2022/07/28 03:14:03;;;;;;;2.47;0.80;;;11.90;66.70;;;;;;4119822;28;20097;-88
2022/07/28 03:16:05;;;;;;;3.17;0.88;;;11.90;66.80;;;;;;4141267;28;20026;-88
2022/07/28 03:18:06;;;;;;;5.45;1.10;;;11.90;66.70;;;;;;4126049;28;20105;-88
2022/07/28 03:20:08;;;;;;;2.63;0.93;;;11.90;66.70;;;;;;4138148;28;20028;-88
2022/07/28 03:22:08;;;;;;;3.72;0.80;;;11.90;66.50;;;;;;4126324;28;20704;-88
2022/07/28 03:24:10;;;;;;;3.83;1.00;;;11.90;66.50;;;;;;4117771;28;20061;-87
2022/07/28 03:26:42;;;;;;;3.30;1.05;;;11.90;66.40;;;;;;4115850;28;20061;-87
2022/07/28 03:29:04;;;;;;;2.72;1.02;;;11.80;66.40;;;;;;4135018;28;20084;-87
2022/07/28 03:31:08;;;;;;;8.15;1.15;;;11.80;66.00;;;;;;4137523;28;20604;-88
2022/07/28 03:33:29;;;;;;;5.40;0.88;;;11.80;66.00;;;;;;4134842;28;20026;-88
2022/07/28 03:35:52;;;;;;;2.92;1.10;;;11.80;65.90;;;;;;4137053;28;20095;-87
2022/07/28 03:38:17;;;;;;;3.50;1.08;;;11.80;65.90;;;;;;4122364;28;20579;-87
2022/07/28 03:40:39;;;;;;;3.80;0.95;;;11.70;65.80;;;;;;4119948;28;20050;-88
2022/07/28 03:43:05;;;;;;;6.68;1.10;;;11.70;66.50;;;;;;4134254;28;20077;-88
2022/07/28 03:45:26;;;;;;;3.45;1.10;;;11.70;65.70;;;;;;4127197;28;20034;-87
2022/07/28 03:48:05;;;;;;;2.72;0.70;;;11.70;65.70;;;;;;4121121;28;20069;-88
2022/07/28 03:50:27;;;;;;;4.65;1.02;;;11.60;66.00;;;;;;4123751;28;20739;-88
2022/07/28 03:52:49;;;;;;;5.97;1.10;;;11.60;65.80;;;;;;4121618;28;20050;-87
2022/07/28 03:55:11;;;;;;;4.13;1.10;;;11.60;65.90;;;;;;4140253;28;20029;-88
2022/07/28 03:57:32;;;;;;;4.20;1.15;;;11.70;66.20;;;;;;4133267;28;20049;-87
2022/07/28 03:59:33;;;;;;;5.53;1.10;;;11.60;66.30;;;;;;4128379;28;20034;-88
2022/07/28 04:01:34;;;;;;;2.83;1.00;;;11.60;66.50;;;;;;4117358;28;20141;-87
2022/07/28 04:03:35;;;;;;;5.15;1.08;;;11.60;66.70;;;;;;4134106;28;20026;-87
2022/07/28 04:05:35;;;;;;;2.80;0.90;;;11.60;67.00;;;;;;4101814;28;20077;-87
2022/07/28 04:07:36;;;;;;;2.65;0.93;;;11.60;67.00;;;;;;4136442;28;20026;-87
2022/07/28 04:09:37;;;;;;;8.48;1.13;;;11.70;66.90;;;;;;4133780;28;21146;-88
2022/07/28 04:11:44;;;;;;;2.42;0.65;;;11.70;66.90;;;;;;4116671;28;20065;-87
2022/07/28 04:13:44;;;;;;;4.75;1.10;;;11.70;67.90;;;;;;4134765;28;20033;-88
2022/07/28 04:15:45;;;;;;;5.13;1.05;;;11.70;67.30;;;;;;4134529;28;20426;-88
2022/07/28 04:17:47;;;;;;;5.35;1.08;;;11.60;67.40;;;;;;4136947;28;20499;-87
2022/07/28 04:19:48;;;;;;;4.10;1.10;;;11.70;67.40;;;;;;4134204;28;20026;-87
2022/07/28 04:21:49;;;;;;;3.78;1.08;;;11.70;67.60;;;;;;4118491;28;20060;-87
2022/07/28 04:23:50;;;;;;;2.90;1.15;;;11.70;67.70;;;;;;4120744;28;20026;-87
2022/07/28 04:25:51;;;;;;;5.40;1.00;;;11.70;67.90;;;;;;4116748;28;20456;-87
2022/07/28 04:27:52;;;;;;;3.40;1.05;;;11.70;68.10;;;;;;4133829;28;20022;-88
2022/07/28 04:29:53;;;;;;;4.00;0.95;;;11.70;68.30;;;;;;4120735;28;20030;-87
2022/07/28 04:31:54;;;;;;;5.00;0.90;;;11.70;68.40;;;;;;4117233;28;20025;-87
2022/07/28 04:33:55;;;;;;;5.93;0.80;;;11.80;68.70;;;;;;4117394;28;20053;-88
2022/07/28 04:35:55;;;;;;;2.33;0.90;;;11.80;68.80;;;;;;4118474;28;20034;-87
2022/07/28 04:37:59;;;;;;;3.33;0.90;;;11.80;68.90;;;;;;4136142;28;20130;-88
2022/07/28 04:39:59;;;;;;;;;;;11.80;69.00;;;;;;4136157;28;20018;-88
2022/07/28 04:42:01;;;;;;;6.82;1.25;;;11.80;69.80;;;;;;4135039;28;20808;-87
2022/07/28 04:44:01;;;;;;;4.13;0.93;;;11.90;68.90;;;;;;4134112;28;20040;-88
2022/07/28 04:46:02;;;;;;;3.95;1.00;;;11.90;69.10;;;;;;4131901;28;20511;-88
2022/07/28 04:48:04;;;;;;;4.25;1.02;;;12.00;69.30;;;;;;4103940;28;20058;-88
2022/07/28 04:50:07;;;;;;;4.30;0.88;;;12.00;69.40;;;;;;4101572;28;20027;-88
2022/07/28 04:52:08;;;;;;;5.22;1.23;;;12.00;69.60;;;;;;4115642;28;20073;-85
2022/07/28 04:54:17;;;;;;;4.72;1.20;;;12.10;69.80;;;;;;4121678;28;20070;-87
2022/07/28 04:56:18;;;;;;;4.38;1.00;;;12.10;69.90;;;;;;4150727;28;20093;-88
2022/07/28 04:58:26;;;;;;;7.03;1.80;;;12.10;70.00;;;;;;4126011;28;20046;-87
2022/07/28 05:00:28;;;;;;;3.13;1.13;;;12.20;70.10;;;;;;4121524;28;20098;-88
2022/07/28 05:02:29;;;;;;;7.63;1.05;;;12.20;70.00;;;;;;4136559;28;20068;-88
2022/07/28 05:04:30;;;;;;;3.47;1.00;;;12.20;70.10;;;;;;4125171;28;20026;-88
2022/07/28 05:06:42;;;;;;;2.53;0.88;;;12.30;70.10;;;;;;4116394;28;20440;-87
2022/07/28 05:08:42;;;;;;;4.82;0.98;;;12.30;70.20;;;;;;4135442;28;20029;-87
2022/07/28 05:11:03;;;;;;;5.13;0.90;;;12.40;70.20;;;;;;4133462;28;20053;-88
2022/07/28 05:13:24;;;;;;;7.28;0.85;;;12.40;70.20;;;;;;4134437;28;20026;-87
2022/07/28 05:15:45;;;;;;;8.57;1.30;;;12.50;70.10;;;;;;4122290;28;20069;-87
2022/07/28 05:18:06;;;;;;;3.63;1.15;;;12.50;70.10;;;;;;4128220;28;20488;-87
2022/07/28 05:20:26;;;;;;;2.45;1.05;;;12.60;71.00;;;;;;4137087;28;20042;-86
2022/07/28 05:22:52;;;;;;;3.58;1.02;;;12.60;70.20;;;;;;4134111;28;20026;-87
2022/07/28 05:25:17;;;;;;;7.18;1.10;;;12.70;70.30;;;;;;4122275;28;20034;-87
2022/07/28 05:27:38;;;;;;;5.25;1.00;;;12.70;70.30;;;;;;4132484;28;20046;-87
2022/07/28 05:29:59;;;;;;;5.05;1.00;;;12.80;70.20;;;;;;4133042;28;20044;-88
2022/07/28 05:32:19;;;;;;;7.72;1.48;;;12.80;70.20;;;;;;4131333;28;20133;-88
2022/07/28 05:34:20;;;;;;;7.40;1.15;;;12.90;70.20;;;;;;4134669;28;20029;-87
2022/07/28 05:36:21;;;;;;;5.35;1.20;;;12.90;70.20;;;;;;4135876;28;20657;-88
2022/07/28 05:38:22;;;;;;;5.57;0.93;;;13.00;70.20;;;;;;4124875;28;20092;-88
2022/07/28 05:40:23;;;;;;;4.72;1.00;;;13.00;70.20;;;;;;4103562;28;20816;-87
2022/07/28 05:42:25;;;;;;;6.82;1.10;;;13.10;70.10;;;;;;4130297;28;20033;-87
2022/07/28 05:44:26;;;;;;;4.70;0.93;;;13.10;70.00;;;;;;4111960;28;20031;-87
2022/07/28 05:46:27;;;;;;;5.47;0.90;;;13.20;69.80;;;;;;4115389;28;20043;-85
2022/07/28 05:48:28;;;;;;;6.30;0.90;;;13.20;69.60;;;;;;4118511;28;20034;-87
2022/07/28 05:50:29;;;;;;;3.78;0.90;;;13.30;69.60;;;;;;4133336;28;20038;-87
2022/07/28 05:52:31;;;;;;;3.50;0.80;;;13.30;69.30;;;;;;4113909;28;20022;-86
2022/07/28 05:54:32;;;;;;;3.30;0.77;;;13.40;69.20;;;;;;4115490;28;20065;-86
2022/07/28 05:56:32;;;;;;;4.20;0.80;;;13.50;68.90;;;;;;4138887;28;20030;-86
2022/07/28 05:58:33;;;;;;;2.95;0.80;;;13.50;68.50;;;;;;4117548;28;20077;-87
2022/07/28 06:00:34;;;;;;;9.95;0.65;;;13.50;67.90;;;;;;4134785;28;20029;-87
2022/07/28 06:02:36;;;;;;;3.03;0.65;;;13.60;67.60;;;;;;4100262;28;20037;-88
2022/07/28 06:04:36;;;;;;;2.55;0.70;;;13.70;67.20;;;;;;4134722;28;20396;-88
2022/07/28 06:06:37;;;;;;;5.85;0.80;;;13.70;66.60;;;;;;4138834;28;20092;-87
2022/07/28 06:08:38;;;;;;;7.05;0.90;;;13.80;66.20;;;;;;4117654;28;20034;-86
2022/07/28 06:10:57;;;;;;;4.25;1.10;;;13.80;65.80;;;;;;4115049;28;20693;-88
2022/07/28 06:12:58;;;;;;;8.50;0.80;;;13.80;65.50;;;;;;4138351;28;20056;-88
2022/07/28 06:15:02;;;;;;;4.68;0.80;;;13.90;65.00;;;;;;4134827;28;20080;-87
2022/07/28 06:17:04;;;;;;;3.55;0.80;;;13.90;64.60;;;;;;4123277;28;20043;-88
2022/07/28 06:19:04;;;;;;;8.55;1.13;;;14.00;64.20;;;;;;4119792;28;20106;-88
2022/07/28 06:21:06;;;;;;;5.47;0.88;;;14.00;63.90;;;;;;4122391;28;20031;-87
2022/07/28 06:23:08;;;;;;;2.58;0.95;;;14.10;63.60;;;;;;4136711;28;20030;-87
2022/07/28 06:25:20;;;;;;;4.10;0.70;;;14.10;63.00;;;;;;4098931;28;20149;-87
2022/07/28 06:27:28;;;;;;;1.35;0.57;;;14.10;62.70;;;;;;4100768;28;20030;-87
2022/07/28 06:29:30;;;;;;;3.42;0.63;;;14.20;62.60;;;;;;4101352;28;20030;-87
2022/07/28 06:31:51;;;;;;;6.82;0.90;;;14.20;62.10;;;;;;4137339;28;20030;-87
2022/07/28 06:34:12;;;;;;;3.80;0.88;;;14.30;61.80;;;;;;4126342;28;20032;-88
2022/07/28 06:36:33;;;;;;;8.77;1.00;;;14.30;61.40;;;;;;4128338;28;20482;-87
2022/07/28 06:38:54;;;;;;;2.38;0.70;;;14.30;61.00;;;;;;4138171;28;20042;-87
2022/07/28 06:41:15;;;;;;;4.28;0.55;;;14.40;60.60;;;;;;4135004;28;20041;-88
2022/07/28 06:43:15;;;;;;;5.07;0.82;;;14.40;60.40;;;;;;4122229;28;20029;-88
2022/07/28 06:45:30;;;;;;;4.35;0.73;;;14.40;59.90;;;;;;4121805;28;20691;-88
2022/07/28 06:47:52;;;;;;;5.65;1.15;;;14.50;59.80;;;;;;4123356;28;20053;-86
2022/07/28 06:50:12;;;;;;;6.43;0.80;;;14.50;59.60;;;;;;4135059;28;20107;-87
2022/07/28 06:52:34;;;;;;;10.15;1.00;;;14.60;59.60;;;;;;4137410;28;20133;-86
2022/07/28 06:54:54;;;;;;;3.53;0.90;;;14.60;59.20;;;;;;4138994;28;20038;-88
2022/07/28 06:57:15;;;;;;;6.07;0.82;;;14.60;58.80;;;;;;4136303;28;20026;-87
2022/07/28 06:59:36;;;;;;;5.43;1.02;;;14.70;58.40;;;;;;4134990;28;20084;-88
2022/07/28 07:01:36;;;;;;;3.15;0.70;;;14.70;58.20;;;;;;4130080;28;20431;-87
2022/07/28 07:03:37;;;;;;;5.30;0.85;;;14.70;58.00;;;;;;4130515;28;20503;-86
2022/07/28 07:05:38;;;;;;;2.60;0.50;;;14.80;57.70;;;;;;4136592;28;20061;-86
2022/07/28 07:07:39;;;;;;;4.93;0.80;;;14.80;57.80;;;;;;4137383;28;20030;-88
2022/07/28 07:09:39;;;;;;;1.40;0.68;;;14.80;57.40;;;;;;4122242;28;20455;-87
2022/07/28 07:11:40;;;;;;;6.40;1.00;;;14.90;57.60;;;;;;4119251;28;20492;-87
2022/07/28 07:13:41;;;;;;;4.30;0.50;;;14.90;57.80;;;;;;4122551;28;20026;-88
2022/07/28 07:15:42;;;;;;;6.32;0.88;;;15.00;57.90;;;;;;4117603;28;20037;-88
2022/07/28 07:17:43;;;;;;;7.57;0.85;;;15.10;57.30;;;;;;4100724;28;20143;-87
2022/07/28 07:19:44;;;;;;;2.22;0.70;;;15.10;57.00;;;;;;4132722;28;20037;-86
2022/07/28 07:21:45;;;;;;;7.15;0.80;;;15.20;56.30;;;;;;4099258;28;20035;-86
2022/07/28 07:23:46;;;;;;;4.43;0.70;;;15.20;56.50;;;;;;4134043;23;20522;-83
2022/07/28 07:25:48;;;;;;;3.53;0.90;;;15.20;55.10;;;;;;4105987;28;20086;-84
2022/07/28 07:27:49;;;;;;;4.07;0.80;;;15.30;55.60;;;;;;4134138;28;20046;-81
2022/07/28 07:29:53;;;;;;;2.60;0.63;;;15.30;55.70;;;;;;4111600;28;20118;-82
2022/07/28 07:31:54;;;;;;;2.97;0.60;;;15.30;55.80;;;;;;4123501;28;20029;-84
2022/07/28 07:33:54;;;;;;;4.03;0.85;;;15.30;55.80;;;;;;4110920;28;20046;-82
2022/07/28 07:35:55;;;;;;;2.40;0.60;;;15.40;55.40;;;;;;4106404;28;20201;-83
2022/07/28 07:37:56;;;;;;;7.65;0.70;;;15.50;55.10;;;;;;4122308;28;20037;-84
2022/07/28 07:40:01;;;;;;;1.95;0.60;;;15.50;54.70;;;;;;4109690;28;20027;-84
2022/07/28 07:42:22;;;;;;;4.97;0.82;;;15.50;54.90;;;;;;4120105;28;20038;-81
2022/07/28 07:44:43;;;;;;;2.83;0.70;;;15.50;54.60;;;;;;4124384;28;20124;-83
2022/07/28 07:47:03;;;;;;;3.17;0.65;;;15.60;54.60;;;;;;4123589;28;20050;-83
2022/07/28 07:49:24;;;;;;;4.45;0.70;;;15.60;54.60;;;;;;4110477;28;20030;-84
2022/07/28 07:51:45;;;;;;;3.08;0.60;;;15.60;54.30;;;;;;4123066;28;20153;-84
2022/07/28 07:54:05;;;;;;;2.63;0.70;;;15.70;54.30;;;;;;4119073;28;20061;-84
2022/07/28 07:56:26;;;;;;;2.10;0.77;;;15.80;54.60;;;;;;4122486;28;20073;-83
2022/07/28 07:58:48;;;;;;;1.52;0.60;;;15.80;54.40;;;;;;4123192;28;20034;-83
2022/07/28 08:01:11;;;;;;;2.88;0.60;;;15.90;54.20;;;;;;4129997;28;20042;-84
2022/07/28 08:03:32;;;;;;;5.88;0.80;;;16.00;54.20;;;;;;4127136;28;20034;-83
2022/07/28 08:05:55;;;;;;;5.10;0.75;;;16.00;53.80;;;;;;4112451;28;20046;-82
2022/07/28 08:08:16;;;;;;;5.00;0.63;;;16.10;53.80;;;;;;4127853;28;20026;-84
2022/07/28 08:10:37;;;;;;;4.53;0.63;;;16.20;53.60;;;;;;4124666;28;20034;-82
2022/07/28 08:12:58;;;;;;;3.45;0.73;;;16.30;53.60;;;;;;4113174;28;20084;-84
2022/07/28 08:14:59;;;;;;;4.43;0.90;;;16.40;53.70;;;;;;4127990;28;20034;-83
2022/07/28 08:16:59;;;;;;;5.68;0.90;;;16.40;53.20;;;;;;4127929;28;20034;-84
2022/07/28 08:19:00;;;;;;;2.30;0.70;;;16.50;53.00;;;;;;4121897;28;20193;-83
2022/07/28 08:21:04;;;;;;;4.28;0.70;;;16.50;52.70;;;;;;4106511;28;20031;-84
2022/07/28 08:23:11;;;;;;;4.45;0.52;;;16.60;52.50;;;;;;4103062;28;20042;-84
2022/07/28 08:25:18;;;;;;;6.55;0.68;;;16.70;52.60;;;;;;4090562;28;20047;-83
2022/07/28 08:27:19;;;;;;;5.90;0.60;;;16.70;52.80;;;;;;4121797;28;20561;-84
2022/07/28 08:30:03;;;;;;;4.57;1.42;;;16.80;52.90;;;;;;4122063;28;20054;-84
2022/07/28 08:33:14;;;;;;;2.67;0.60;;;17.00;52.40;;;;;;4093494;28;20031;-83
2022/07/28 08:35:15;;;;;;;6.55;0.60;;;17.00;51.00;;;;;;4098230;28;20106;-82
2022/07/28 08:37:16;;;;;;;3.10;0.60;;;17.10;51.30;;;;;;4116710;28;20042;-84
2022/07/28 08:39:16;;;;;;;4.20;0.70;;;17.10;51.10;;;;;;4091660;28;20031;-86
2022/07/28 08:41:57;;;;;;;3.55;0.80;;;17.20;50.90;;;;;;4122269;28;20027;-83
2022/07/28 08:44:01;;;;;;;2.45;0.60;;;17.30;50.70;;;;;;4118208;28;20051;-84
2022/07/28 08:46:03;;;;;;;2.65;0.70;;;17.20;51.10;;;;;;4121903;28;20067;-84
2022/07/28 08:48:29;;;;;;;8.95;0.77;;;17.30;51.00;;;;;;4109084;28;20041;-84
2022/07/28 08:50:30;;;;;;;4.05;0.82;;;17.30;50.70;;;;;;4120656;28;20023;-83
2022/07/28 08:52:38;;;;;;;5.72;0.90;;;17.40;51.10;;;;;;4121016;28;20098;-83
2022/07/28 08:55:02;;;;;;;2.20;0.60;;;17.40;51.20;;;;;;4112811;28;20719;-83
2022/07/28 08:57:30;;;;;;;2.53;0.73;;;17.50;51.10;;;;;;4131610;28;20833;-83
2022/07/28 08:59:51;;;;;;;6.13;0.80;;;17.60;50.70;;;;;;4116304;28;20037;-84
2022/07/28 09:02:12;;;;;;;3.85;0.55;;;17.70;49.90;;;;;;4113494;28;20056;-84
2022/07/28 09:04:35;;;;;;;2.00;0.63;;;17.80;49.40;;;;;;4123701;28;20038;-84
2022/07/28 09:06:56;;;;;;;1.48;0.45;;;17.80;49.40;;;;;;4126395;28;20514;-84
2022/07/28 09:08:57;;;;;;;1.52;0.70;;;17.90;49.60;;;;;;4121186;28;20084;-84
2022/07/28 09:11:18;;;;;;;2.75;0.75;;;17.90;49.20;;;;;;4124597;28;20550;-83
2022/07/28 09:13:38;;;;;;;3.17;0.73;;;17.90;48.90;;;;;;4124870;28;20498;-84
2022/07/28 09:15:59;;;;;;;7.30;1.08;;;18.00;49.20;;;;;;4116230;28;21394;-84
2022/07/28 09:18:20;;;;;;;5.55;0.70;;;18.00;49.00;;;;;;4123885;28;20310;-83
2022/07/28 09:20:42;;;;;;;1.70;0.50;;;18.00;48.50;;;;;;4121608;28;20495;-84
2022/07/28 09:23:05;;;;;;;2.85;0.68;;;18.10;48.50;;;;;;4124656;28;20042;-83
2022/07/28 09:25:26;;;;;;;3.70;0.70;;;18.10;48.30;;;;;;4127037;28;20603;-85
2022/07/28 09:27:47;;;;;;;3.00;0.63;;;18.20;48.70;;;;;;4120823;28;20562;-82
2022/07/28 09:29:58;;;;;;;3.85;0.73;;;18.20;48.60;;;;;;4122915;28;20053;-83
2022/07/28 09:31:58;;;;;;;2.55;0.60;;;18.30;47.70;;;;;;4124703;28;20565;-85
2022/07/28 09:34:01;;;;;;;4.30;0.75;;;18.30;48.10;;;;;;4109584;28;20043;-85
2022/07/28 09:36:03;;;;;;;3.22;0.60;;;18.40;48.30;;;;;;4123328;28;20510;-83
2022/07/28 09:38:04;;;;;;;4.85;1.00;;;18.40;48.30;;;;;;4107020;28;20038;-84
2022/07/28 09:40:12;;;;;;;6.30;1.00;;;18.40;47.40;;;;;;4103102;28;20047;-84
2022/07/28 09:42:13;;;;;;;2.95;0.70;;;18.40;46.90;;;;;;4106647;28;20380;-84
2022/07/28 09:44:18;;;;;;;4.68;0.60;;;18.50;47.30;;;;;;4123008;28;20029;-83
2022/07/28 09:46:21;;;;;;;5.32;0.70;;;18.50;47.20;;;;;;4105867;28;20034;-83
2022/07/28 09:48:22;;;;;;;4.07;0.80;;;18.50;47.40;;;;;;4121326;28;20019;-84
2022/07/28 09:50:26;;;;;;;2.92;0.70;;;18.50;46.70;;;;;;4108786;28;20027;-85
2022/07/28 09:52:35;;;;;;;2.85;0.70;;;18.40;46.70;;;;;;4110867;28;20103;-82
2022/07/28 09:54:36;;;;;;;3.33;0.68;;;18.50;46.70;;;;;;4127267;28;20030;-84
2022/07/28 09:56:38;;;;;;;3.92;0.93;;;18.40;47.00;;;;;;4105762;28;20031;-84
2022/07/28 09:58:59;;;;;;;4.13;0.70;;;18.40;47.10;;;;;;4103622;28;20518;-84
2022/07/28 10:01:14;;;;;;;2.80;0.80;;;18.40;47.20;;;;;;4106570;28;20149;-85
2022/07/28 10:03:41;;;;;;;1.27;0.60;;;18.40;47.70;;;;;;4124480;28;20037;-84
2022/07/28 10:06:10;;;;;;;1.48;0.50;;;18.40;46.50;;;;;;4126797;28;20490;-84
2022/07/28 10:08:38;;;;;;;2.42;0.65;;;18.40;46.60;;;;;;4124059;28;21835;-84
2022/07/28 10:10:59;;;;;;;3.15;0.75;;;18.40;46.30;;;;;;4110038;28;20185;-84
2022/07/28 10:13:21;;;;;;;0.90;0.45;;;18.50;46.40;;;;;;4126486;28;20728;-85
2022/07/28 10:18:21;;;;;;;3.17;0.40;;;18.50;46.40;;;;;;4124359;28;20683;-84
2022/07/28 10:20:43;;;;;;;2.80;0.63;;;18.40;46.50;;;;;;4108801;28;20031;-84
2022/07/28 10:22:44;;;;;;;2.45;0.70;;;18.50;46.20;;;;;;4124074;28;20037;-84
2022/07/28 10:24:48;;;;;;;2.67;0.70;;;18.50;46.10;;;;;;4112179;28;21583;-84
2022/07/28 10:26:51;;;;;;;2.17;0.40;;;18.50;46.10;;;;;;4106726;28;20152;-84
2022/07/28 10:28:53;;;;;;;1.60;0.57;;;18.50;46.00;;;;;;4121576;28;20027;-85
2022/07/28 10:30:59;;;;;;;2.15;0.60;;;18.50;46.10;;;;;;4127282;28;20270;-86
2022/07/28 10:33:03;;;;;;;4.18;0.70;;;18.50;45.60;;;;;;4111101;28;20041;-85
2022/07/28 10:35:13;;;;;;;3.13;0.60;;;18.50;45.80;;;;;;4124137;28;20039;-84
2022/07/28 10:37:20;;;;;;;1.65;0.55;;;18.50;45.90;;;;;;4119604;28;20548;-84
2022/07/28 10:39:27;;;;;;;4.40;0.82;;;18.50;46.00;;;;;;4123417;28;20053;-84
2022/07/28 10:41:49;;;;;;;2.10;0.50;;;18.50;45.90;;;;;;4110381;28;21520;-84
2022/07/28 10:44:16;;;;;;;4.70;0.90;;;18.60;46.10;;;;;;4123028;28;20401;-84
2022/07/28 10:46:37;;;;;;;1.88;0.40;;;18.50;45.30;;;;;;4125447;28;20368;-82
2022/07/28 10:51:09;;;;;;;2.97;0.60;;;18.50;45.60;;;;;;4695022;23;20054;-82
2022/07/28 10:53:55;;;;;;;2.85;0.65;;;18.50;45.60;;;;;;4123059;28;20731;-84
2022/07/28 10:56:37;;;;;;;8.93;0.57;;;18.50;45.30;;;;;;4106239;28;20497;-85
2022/07/28 10:59:11;;;;;;;2.65;0.50;;;18.50;45.60;;;;;;4372412;23;20061;-84
2022/07/28 11:02:29;;;;;;;4.18;0.90;;;18.50;45.90;;;;;;4109279;28;20034;-85
2022/07/28 11:05:53;;;;;;;4.75;0.63;;;18.50;45.90;;;;;;4121637;28;20785;-85
2022/07/28 11:08:14;;;;;;;2.15;0.52;;;18.60;46.10;;;;;;4048696;29;20059;-85
2022/07/28 11:10:16;;;;;;;1.67;0.60;;;18.60;46.50;;;;;;4105402;28;20039;-85
2022/07/28 11:12:57;;;;;;;3.83;0.90;;;18.60;46.50;;;;;;4105711;28;20432;-84
2022/07/28 11:14:58;;;;;;;2.85;0.70;;;18.60;46.10;;;;;;4090763;28;20031;-84
2022/07/28 11:17:24;;;;;;;3.22;0.55;;;18.70;46.30;;;;;;4104938;28;20030;-86
2022/07/28 11:19:45;;;;;;;3.65;0.73;;;18.70;46.20;;;;;;4108874;28;20590;-86
2022/07/28 11:22:32;;;;;;;4.22;0.52;;;18.80;46.40;;;;;;4104741;28;20875;-83
2022/07/28 11:25:03;;;;;;;5.68;0.70;;;18.80;45.70;;;;;;4087111;28;20062;-85
2022/07/28 11:27:03;;;;;;;2.72;0.68;;;18.80;45.90;;;;;;4102042;28;20099;-85